Time;durP1;ratioP1;P1;durP2;ratioP2;P2;SDS_P1;SDS_P2;PMS_P1;PMS_P2;Temp;Humidity;BMP_temperature;BMP_pressure;BME280_temperature;BME280_humidity;BME280_pressure;Samples;Min_cycle;Max_cycle;Signal;HPM_P1;HPM_P2
2024/05/06 00:01:27;;;;;;;;;;;;;;;;;;5455344;26;20681;-66
2024/05/06 00:03:52;;;;;;;;;;;;;;;;;;5445171;26;19932;-65
2024/05/06 00:06:17;;;;;;;;;;;;;;;;;;5443212;26;19939;-66
2024/05/06 00:08:42;;;;;;;;;;;;;;;;;;5442472;26;19928;-65
2024/05/06 00:11:08;;;;;;;;;;;;;;;;;;5439936;26;20521;-65
2024/05/06 00:13:33;;;;;;;;;;;;;;;;;;5444804;26;20286;-65
2024/05/06 00:15:58;;;;;;;;;;;;;;;;;;5436780;26;19940;-65
2024/05/06 00:18:23;;;;;;;;;;;;;;;;;;5441078;26;19944;-66
2024/05/06 00:20:48;;;;;;;;;;;;;;;;;;5454140;26;19968;-65
2024/05/06 00:23:13;;;;;;;;;;;;;;;;;;5444657;26;20269;-65
2024/05/06 00:25:38;;;;;;;;;;;;;;;;;;5444680;26;19928;-66
2024/05/06 00:28:03;;;;;;;;;;;;;;;;;;5444442;26;19996;-66
2024/05/06 00:30:28;;;;;;;;;;;;;;;;;;5429619;26;19936;-66
2024/05/06 00:32:53;;;;;;;;;;;;;;;;;;5444258;26;20257;-66
2024/05/06 00:35:18;;;;;;;;;;;;;;;;;;5447856;26;20341;-66
2024/05/06 00:37:43;;;;;;;;;;;;;;;;;;5442660;26;19928;-65
2024/05/06 00:40:09;;;;;;;;;;;;;;;;;;5443976;26;20354;-66
2024/05/06 00:42:34;;;;;;;;;;;;;;;;;;5443689;26;19935;-66
2024/05/06 00:44:59;;;;;;;;;;;;;;;;;;5466920;25;19932;-66
2024/05/06 00:47:24;;;;;;;;;;;;;;;;;;5444939;26;19928;-66
2024/05/06 00:49:49;;;;;;;;;;;;;;;;;;5430019;26;19937;-66
2024/05/06 00:52:14;;;;;;;;;;;;;;;;;;5436400;26;20362;-66
2024/05/06 00:54:39;;;;;;;;;;;;;;;;;;5467989;26;19974;-65
2024/05/06 00:57:04;;;;;;;;;;;;;;;;;;5440972;26;19929;-66
2024/05/06 00:59:29;;;;;;;;;;;;;;;;;;5444681;26;20262;-66
2024/05/06 01:01:55;;;;;;;;;;;;;;;;;;5461159;26;19944;-66
2024/05/06 01:04:20;;;;;;;;;;;;;;;;;;5444053;26;20381;-66
2024/05/06 01:06:45;;;;;;;;;;;;;;;;;;5429407;26;19928;-65
2024/05/06 01:09:10;;;;;;;;;;;;;;;;;;5461764;26;20253;-65
2024/05/06 01:11:38;;;;;;;;;;;;;;;;;;5480678;25;19935;-66
2024/05/06 01:14:03;;;;;;;;;;;;;;;;;;5480454;25;19929;-65
2024/05/06 01:16:28;;;;;;;;;;;;;;;;;;5464935;25;19942;-65
2024/05/06 01:18:53;;;;;;;;;;;;;;;;;;5480617;25;19936;-65
2024/05/06 01:21:19;;;;;;;;;;;;;;;;;;5487262;25;19959;-65
2024/05/06 01:23:44;;;;;;;;;;;;;;;;;;5480740;25;20437;-66
2024/05/06 01:26:09;;;;;;;;;;;;;;;;;;5480111;25;19928;-65
2024/05/06 01:28:34;;;;;;;;;;;;;;;;;;5467111;25;19935;-65
2024/05/06 01:30:59;;;;;;;;;;;;;;;;;;5480536;25;20751;-65
2024/05/06 01:33:24;;;;;;;;;;;;;;;;;;5480375;25;19943;-65
2024/05/06 01:35:49;;;;;;;;;;;;;;;;;;5487884;25;19927;-65
2024/05/06 01:38:15;;;;;;;;;;;;;;;;;;5479891;25;19935;-66
2024/05/06 01:40:40;;;;;;;;;;;;;;;;;;5480438;25;20367;-65
2024/05/06 01:43:05;;;;;;;;;;;;;;;;;;5479918;25;19939;-65
2024/05/06 01:45:30;;;;;;;;;;;;;;;;;;5465389;26;19943;-65
2024/05/06 01:47:55;;;;;;;;;;;;;;;;;;5479329;25;19935;-65
2024/05/06 01:50:20;;;;;;;;;;;;;;;;;;5479293;25;19928;-65
2024/05/06 01:52:45;;;;;;;;;;;;;;;;;;5470438;25;20770;-65
2024/05/06 01:55:10;;;;;;;;;;;;;;;;;;5493399;25;20744;-65
2024/05/06 01:57:35;;;;;;;;;;;;;;;;;;5482142;25;19936;-65
2024/05/06 02:00:00;;;;;;;;;;;;;;;;;;5474214;25;20015;-65
2024/05/06 02:02:26;;;;;;;;;;;;;;;;;;5448273;25;20441;-66
2024/05/06 02:04:51;;;;;;;;;;;;;;;;;;5479109;26;19939;-65
2024/05/06 02:07:16;;;;;;;;;;;;;;;;;;5479251;25;19928;-65
2024/05/06 02:09:41;;;;;;;;;;;;;;;;;;5480243;25;19928;-65
2024/05/06 02:12:08;;;;;;;;;;;;;;;;;;5469275;26;20290;-65
2024/05/06 02:14:33;;;;;;;;;;;;;;;;;;5454286;26;19932;-65
2024/05/06 02:16:58;;;;;;;;;;;;;;;;;;5472402;25;19964;-65
2024/05/06 02:19:23;;;;;;;;;;;;;;;;;;5459154;26;19928;-66
2024/05/06 02:21:48;;;;;;;;;;;;;;;;;;5492839;25;19928;-65
2024/05/06 02:24:13;;;;;;;;;;;;;;;;;;5476888;25;19940;-65
2024/05/06 02:26:38;;;;;;;;;;;;;;;;;;5479637;25;20006;-65
2024/05/06 02:29:04;;;;;;;;;;;;;;;;;;5477654;26;19928;-65
2024/05/06 02:31:29;;;;;;;;;;;;;;;;;;5458473;25;20332;-65
2024/05/06 02:33:54;;;;;;;;;;;;;;;;;;5441082;26;20353;-65
2024/05/06 02:36:19;;;;;;;;;;;;;;;;;;5443726;26;19940;-65
2024/05/06 02:38:44;;;;;;;;;;;;;;;;;;5478841;26;19968;-65
2024/05/06 02:41:12;;;;;;;;;;;;;;;;;;5471756;25;20409;-65
2024/05/06 02:43:37;;;;;;;;;;;;;;;;;;5471937;25;20002;-65
2024/05/06 02:46:02;;;;;;;;;;;;;;;;;;5464002;26;19968;-65
2024/05/06 02:48:27;;;;;;;;;;;;;;;;;;5478292;25;19996;-65
2024/05/06 02:50:52;;;;;;;;;;;;;;;;;;5464158;26;19954;-65
2024/05/06 02:53:17;;;;;;;;;;;;;;;;;;5479245;25;19932;-65
2024/05/06 02:55:43;;;;;;;;;;;;;;;;;;5479220;25;20316;-65
2024/05/06 02:58:08;;;;;;;;;;;;;;;;;;5477320;25;19935;-66
2024/05/06 03:00:33;;;;;;;;;;;;;;;;;;5478930;25;19935;-65
2024/05/06 03:02:58;;;;;;;;;;;;;;;;;;5475509;25;19927;-65
2024/05/06 03:05:23;;;;;;;;;;;;;;;;;;5468003;25;19939;-65
2024/05/06 03:07:48;;;;;;;;;;;;;;;;;;5476554;26;19928;-65
2024/05/06 03:10:13;;;;;;;;;;;;;;;;;;5469610;25;19976;-65
2024/05/06 03:12:38;;;;;;;;;;;;;;;;;;5479867;26;20703;-65
2024/05/06 03:15:03;;;;;;;;;;;;;;;;;;5478930;25;20307;-65
2024/05/06 03:17:28;;;;;;;;;;;;;;;;;;5478103;25;19944;-65
2024/05/06 03:19:53;;;;;;;;;;;;;;;;;;5464516;25;19997;-65
2024/05/06 03:22:18;;;;;;;;;;;;;;;;;;5476698;25;19932;-65
2024/05/06 03:24:44;;;;;;;;;;;;;;;;;;5476081;25;19928;-65
2024/05/06 03:27:09;;;;;;;;;;;;;;;;;;5461189;25;19928;-65
2024/05/06 03:29:34;;;;;;;;;;;;;;;;;;5454912;26;19940;-65
2024/05/06 03:31:59;;;;;;;;;;;;;;;;;;5477658;25;19996;-65
2024/05/06 03:34:24;;;;;;;;;;;;;;;;;;5458733;25;19968;-65
2024/05/06 03:36:49;;;;;;;;;;;;;;;;;;5487807;26;20495;-65
2024/05/06 03:39:14;;;;;;;;;;;;;;;;;;5478618;25;19931;-65
2024/05/06 03:41:39;;;;;;;;;;;;;;;;;;5478278;25;19935;-65
2024/05/06 03:44:04;;;;;;;;;;;;;;;;;;5476699;25;19959;-65
2024/05/06 03:46:29;;;;;;;;;;;;;;;;;;5452280;26;19928;-65
2024/05/06 03:48:55;;;;;;;;;;;;;;;;;;5479592;25;19928;-65
2024/05/06 03:51:20;;;;;;;;;;;;;;;;;;5460404;25;20275;-65
2024/05/06 03:53:45;;;;;;;;;;;;;;;;;;5473774;25;20372;-65
2024/05/06 03:56:10;;;;;;;;;;;;;;;;;;5460859;25;19936;-65
2024/05/06 03:58:36;;;;;;;;;;;;;;;;;;5445541;26;19940;-65
2024/05/06 04:01:01;;;;;;;;;;;;;;;;;;5445060;26;19993;-65
2024/05/06 04:03:26;;;;;;;;;;;;;;;;;;5430886;26;19943;-65
2024/05/06 04:05:51;;;;;;;;;;;;;;;;;;5472216;26;19928;-65
2024/05/06 04:08:16;;;;;;;;;;;;;;;;;;5480609;25;20253;-65
2024/05/06 04:10:41;;;;;;;;;;;;;;;;;;5482037;25;20274;-65
2024/05/06 04:13:06;;;;;;;;;;;;;;;;;;5464606;25;19932;-65
2024/05/06 04:15:31;;;;;;;;;;;;;;;;;;5442770;26;19929;-65
2024/05/06 04:17:56;;;;;;;;;;;;;;;;;;5444952;25;19928;-65
2024/05/06 04:20:22;;;;;;;;;;;;;;;;;;5480107;25;19940;-65
2024/05/06 04:22:47;;;;;;;;;;;;;;;;;;5481126;25;20036;-65
2024/05/06 04:27:56;;;;;;;;;;;;;;;;;;5471529;25;20433;-65
2024/05/06 04:30:21;;;;;;;;;;;;;;;;;;5458751;25;20358;-65
2024/05/06 04:32:46;;;;;;;;;;;;;;;;;;5473707;25;19932;-65
2024/05/06 04:35:12;;;;;;;;;;;;;;;;;;5477810;25;19928;-65
2024/05/06 04:37:37;;;;;;;;;;;;;;;;;;5484248;25;19928;-65
2024/05/06 04:40:02;;;;;;;;;;;;;;;;;;5479837;25;19928;-65
2024/05/06 04:42:27;;;;;;;;;;;;;;;;;;5474794;25;19938;-65
2024/05/06 04:44:52;;;;;;;;;;;;;;;;;;5461498;25;19933;-65
2024/05/06 04:47:17;;;;;;;;;;;;;;;;;;5438439;26;20399;-65
2024/05/06 04:49:42;;;;;;;;;;;;;;;;;;5448788;26;19928;-65
2024/05/06 04:52:07;;;;;;;;;;;;;;;;;;5477288;25;20269;-65
2024/05/06 04:54:32;;;;;;;;;;;;;;;;;;5481203;25;19928;-65
2024/05/06 04:56:57;;;;;;;;;;;;;;;;;;5471215;25;19928;-65
2024/05/06 04:59:22;;;;;;;;;;;;;;;;;;5483546;25;19928;-65
2024/05/06 05:01:51;;;;;;;;;;;;;;;;;;5481286;25;19996;-65
2024/05/06 05:04:16;;;;;;;;;;;;;;;;;;5480083;25;19935;-65
2024/05/06 05:06:41;;;;;;;;;;;;;;;;;;5480134;25;20348;-65
2024/05/06 05:09:07;;;;;;;;;;;;;;;;;;5479514;25;19928;-65
2024/05/06 05:11:32;;;;;;;;;;;;;;;;;;5480946;25;19928;-65
2024/05/06 05:13:57;;;;;;;;;;;;;;;;;;5472698;26;19961;-65
2024/05/06 05:16:22;;;;;;;;;;;;;;;;;;5475186;25;19935;-65
2024/05/06 05:18:47;;;;;;;;;;;;;;;;;;5439441;26;19940;-65
2024/05/06 05:21:12;;;;;;;;;;;;;;;;;;5462524;26;19927;-65
2024/05/06 05:23:37;;;;;;;;;;;;;;;;;;5475524;26;19938;-65
2024/05/06 05:26:02;;;;;;;;;;;;;;;;;;5480859;25;20289;-65
2024/05/06 05:28:28;;;;;;;;;;;;;;;;;;5469932;25;19928;-65
2024/05/06 05:30:53;;;;;;;;;;;;;;;;;;5473616;25;19936;-65
2024/05/06 05:33:18;;;;;;;;;;;;;;;;;;5479437;25;19941;-65
2024/05/06 05:35:43;;;;;;;;;;;;;;;;;;5489054;25;19927;-64
2024/05/06 05:38:08;;;;;;;;;;;;;;;;;;5483199;25;19943;-65
2024/05/06 05:40:33;;;;;;;;;;;;;;;;;;5456873;25;19929;-64
2024/05/06 05:42:58;;;;;;;;;;;;;;;;;;5443936;26;20361;-64
2024/05/06 05:45:23;;;;;;;;;;;;;;;;;;5443789;26;19970;-64
2024/05/06 05:47:48;;;;;;;;;;;;;;;;;;5426187;26;19929;-64
2024/05/06 05:50:13;;;;;;;;;;;;;;;;;;5440552;26;19936;-64
2024/05/06 05:52:39;;;;;;;;;;;;;;;;;;5444897;26;19992;-64
2024/05/06 05:55:04;;;;;;;;;;;;;;;;;;5477454;26;20456;-64
2024/05/06 05:57:29;;;;;;;;;;;;;;;;;;5480786;26;19928;-64
2024/05/06 05:59:54;;;;;;;;;;;;;;;;;;5476901;26;20380;-65
2024/05/06 06:02:19;;;;;;;;;;;;;;;;;;5465210;25;19940;-64
2024/05/06 06:04:44;;;;;;;;;;;;;;;;;;5467542;25;19940;-64
2024/05/06 06:07:09;;;;;;;;;;;;;;;;;;5446824;26;20034;-64
2024/05/06 06:09:34;;;;;;;;;;;;;;;;;;5448431;25;19973;-64
2024/05/06 06:11:59;;;;;;;;;;;;;;;;;;5461996;25;20505;-65
2024/05/06 06:14:24;;;;;;;;;;;;;;;;;;5478371;25;21144;-64
2024/05/06 06:16:49;;;;;;;;;;;;;;;;;;5475673;25;19927;-66
2024/05/06 06:19:15;;;;;;;;;;;;;;;;;;5460791;25;19928;-65
2024/05/06 06:21:40;;;;;;;;;;;;;;;;;;5479566;26;20357;-65
2024/05/06 06:24:05;;;;;;;;;;;;;;;;;;5475425;25;20512;-65
2024/05/06 06:26:30;;;;;;;;;;;;;;;;;;5479352;25;19931;-66
2024/05/06 06:28:55;;;;;;;;;;;;;;;;;;5479485;25;19939;-66
2024/05/06 06:31:20;;;;;;;;;;;;;;;;;;5480268;25;19927;-65
2024/05/06 06:33:45;;;;;;;;;;;;;;;;;;5478911;25;19928;-65
2024/05/06 06:36:10;;;;;;;;;;;;;;;;;;5476118;26;19928;-67
2024/05/06 06:38:36;;;;;;;;;;;;;;;;;;5450549;26;20504;-66
2024/05/06 06:41:01;;;;;;;;;;;;;;;;;;5479479;26;20248;-67
2024/05/06 06:43:26;;;;;;;;;;;;;;;;;;5463547;25;19928;-67
2024/05/06 06:45:51;;;;;;;;;;;;;;;;;;5479324;25;19935;-67
2024/05/06 06:48:16;;;;;;;;;;;;;;;;;;5474500;25;19928;-66
2024/05/06 06:50:41;;;;;;;;;;;;;;;;;;5442759;26;19940;-66
2024/05/06 06:53:06;;;;;;;;;;;;;;;;;;5442604;26;20012;-67
2024/05/06 06:55:31;;;;;;;;;;;;;;;;;;5443021;26;19928;-67
2024/05/06 06:57:56;;;;;;;;;;;;;;;;;;5442567;26;19958;-66
2024/05/06 07:00:21;;;;;;;;;;;;;;;;;;5442112;26;19941;-67
2024/05/06 07:02:46;;;;;;;;;;;;;;;;;;5442196;26;19929;-67
2024/05/06 07:05:12;;;;;;;;;;;;;;;;;;5457467;26;19928;-68
2024/05/06 07:07:37;;;;;;;;;;;;;;;;;;5453164;26;19940;-67
2024/05/06 07:10:02;;;;;;;;;;;;;;;;;;5466395;26;20006;-67
2024/05/06 07:12:27;;;;;;;;;;;;;;;;;;5469764;26;19938;-68
2024/05/06 07:14:52;;;;;;;;;;;;;;;;;;5459468;26;20247;-68
2024/05/06 07:17:17;;;;;;;;;;;;;;;;;;5495132;26;19934;-67
2024/05/06 07:19:42;;;;;;;;;;;;;;;;;;5516733;25;19931;-68
2024/05/06 07:22:08;;;;;;;;;;;;;;;;;;5517521;25;19934;-68
2024/05/06 07:24:33;;;;;;;;;;;;;;;;;;5519008;25;19961;-68
2024/05/06 07:26:58;;;;;;;;;;;;;;;;;;5510716;26;20009;-68
2024/05/06 07:29:23;;;;;;;;;;;;;;;;;;5511517;25;19956;-67
2024/05/06 07:31:48;;;;;;;;;;;;;;;;;;5481699;26;19934;-68
2024/05/06 07:34:13;;;;;;;;;;;;;;;;;;5501965;25;19959;-68
2024/05/06 07:36:38;;;;;;;;;;;;;;;;;;5496605;26;19953;-68
2024/05/06 07:39:03;;;;;;;;;;;;;;;;;;5481901;25;19928;-67
2024/05/06 07:41:28;;;;;;;;;;;;;;;;;;5494518;26;19935;-68
2024/05/06 07:43:53;;;;;;;;;;;;;;;;;;5470050;25;19935;-68
2024/05/06 07:46:18;;;;;;;;;;;;;;;;;;5475075;25;19932;-68
2024/05/06 07:48:44;;;;;;;;;;;;;;;;;;5451681;26;19951;-67
2024/05/06 07:51:09;;;;;;;;;;;;;;;;;;5480394;26;20295;-68
2024/05/06 07:53:34;;;;;;;;;;;;;;;;;;5487630;26;20273;-67
2024/05/06 07:55:59;;;;;;;;;;;;;;;;;;5479865;26;19936;-67
2024/05/06 07:58:26;;;;;;;;;;;;;;;;;;5469512;26;19960;-67
2024/05/06 08:00:51;;;;;;;;;;;;;;;;;;5471310;26;19936;-67
2024/05/06 08:03:16;;;;;;;;;;;;;;;;;;5479791;26;19928;-68
2024/05/06 08:05:42;;;;;;;;;;;;;;;;;;5484701;25;19940;-68
2024/05/06 08:08:07;;;;;;;;;;;;;;;;;;5481744;26;19936;-68
2024/05/06 08:10:32;;;;;;;;;;;;;;;;;;5505915;25;19955;-67
2024/05/06 08:12:57;;;;;;;;;;;;;;;;;;5470973;26;19928;-67
2024/05/06 08:15:22;;;;;;;;;;;;;;;;;;5475975;26;20307;-68
2024/05/06 08:17:47;;;;;;;;;;;;;;;;;;5484536;26;19938;-67
2024/05/06 08:20:12;;;;;;;;;;;;;;;;;;5481681;26;20362;-68
2024/05/06 08:22:37;;;;;;;;;;;;;;;;;;5487633;26;19928;-68
2024/05/06 08:25:02;;;;;;;;;;;;;;;;;;5476726;26;19928;-67
2024/05/06 08:27:27;;;;;;;;;;;;;;;;;;5465852;26;20383;-67
2024/05/06 08:29:52;;;;;;;;;;;;;;;;;;5468691;26;19960;-68
2024/05/06 08:32:20;;;;;;;;;;;;;;;;;;5454091;26;19936;-67
2024/05/06 08:34:45;;;;;;;;;;;;;;;;;;5485995;25;19977;-68
2024/05/06 08:37:10;;;;;;;;;;;;;;;;;;5480663;26;20246;-67
2024/05/06 08:39:35;;;;;;;;;;;;;;;;;;5495317;25;19934;-68
2024/05/06 08:42:01;;;;;;;;;;;;;;;;;;5453750;26;19996;-68
2024/05/06 08:44:29;;;;;;;;;;;;;;;;;;5478211;26;20402;-68
2024/05/06 08:46:54;;;;;;;;;;;;;;;;;;5479917;25;19927;-68
2024/05/06 08:49:19;;;;;;;;;;;;;;;;;;5471828;25;19996;-68
2024/05/06 08:51:44;;;;;;;;;;;;;;;;;;5486070;25;20368;-67
2024/05/06 08:54:09;;;;;;;;;;;;;;;;;;5465986;25;20296;-68
2024/05/06 08:56:35;;;;;;;;;;;;;;;;;;5456144;26;19928;-68
2024/05/06 08:59:00;;;;;;;;;;;;;;;;;;5453560;26;20244;-68
2024/05/06 09:01:25;;;;;;;;;;;;;;;;;;5470883;26;20396;-68
2024/05/06 09:03:50;;;;;;;;;;;;;;;;;;5484894;26;20334;-68
2024/05/06 09:06:15;;;;;;;;;;;;;;;;;;5426087;26;20373;-68
2024/05/06 09:08:41;;;;;;;;;;;;;;;;;;5444784;26;19928;-68
2024/05/06 09:11:06;;;;;;;;;;;;;;;;;;5427782;26;19937;-68
2024/05/06 09:13:31;;;;;;;;;;;;;;;;;;5452226;26;19964;-68
2024/05/06 09:15:56;;;;;;;;;;;;;;;;;;5442921;26;19993;-68
2024/05/06 09:18:21;;;;;;;;;;;;;;;;;;5441063;26;20502;-68
2024/05/06 09:20:47;;;;;;;;;;;;;;;;;;5445013;26;20267;-68
2024/05/06 09:23:12;;;;;;;;;;;;;;;;;;5441130;26;19932;-68
2024/05/06 09:25:37;;;;;;;;;;;;;;;;;;5487178;26;19935;-68
2024/05/06 09:28:02;;;;;;;;;;;;;;;;;;5497621;25;20352;-69
2024/05/06 09:30:27;;;;;;;;;;;;;;;;;;5474957;25;20265;-68
2024/05/06 09:32:52;;;;;;;;;;;;;;;;;;5475440;25;19939;-68
2024/05/06 09:35:17;;;;;;;;;;;;;;;;;;5482141;25;19935;-68
2024/05/06 09:37:43;;;;;;;;;;;;;;;;;;5479755;26;19943;-68
2024/05/06 09:40:09;;;;;;;;;;;;;;;;;;5479865;25;19997;-68
2024/05/06 09:42:34;;;;;;;;;;;;;;;;;;5478953;25;19946;-68
2024/05/06 09:44:59;;;;;;;;;;;;;;;;;;5480289;25;19928;-68
2024/05/06 09:47:24;;;;;;;;;;;;;;;;;;5480359;25;20000;-68
2024/05/06 09:49:49;;;;;;;;;;;;;;;;;;5478577;26;20289;-68
2024/05/06 09:52:14;;;;;;;;;;;;;;;;;;5479401;25;20250;-68
2024/05/06 09:54:39;;;;;;;;;;;;;;;;;;5480122;25;20052;-68
2024/05/06 09:57:05;;;;;;;;;;;;;;;;;;5479978;25;19935;-68
2024/05/06 09:59:30;;;;;;;;;;;;;;;;;;5480435;26;20026;-68
2024/05/06 10:01:55;;;;;;;;;;;;;;;;;;5480267;25;19927;-67
2024/05/06 10:04:20;;;;;;;;;;;;;;;;;;5478887;25;19928;-66
2024/05/06 10:06:45;;;;;;;;;;;;;;;;;;5469771;25;19997;-66
2024/05/06 10:09:10;;;;;;;;;;;;;;;;;;5461351;26;19935;-67
2024/05/06 10:11:35;;;;;;;;;;;;;;;;;;5479908;26;19964;-66
2024/05/06 10:14:00;;;;;;;;;;;;;;;;;;5478841;25;19935;-67
2024/05/06 10:16:25;;;;;;;;;;;;;;;;;;5478904;25;20462;-67
2024/05/06 10:18:50;;;;;;;;;;;;;;;;;;5479171;26;19928;-66
2024/05/06 10:21:15;;;;;;;;;;;;;;;;;;5487413;25;20335;-66
2024/05/06 10:23:41;;;;;;;;;;;;;;;;;;5478883;25;19996;-66
2024/05/06 10:26:10;;;;;;;;;;;;;;;;;;5479323;25;19928;-67
2024/05/06 10:28:35;;;;;;;;;;;;;;;;;;5479326;26;19928;-67
2024/05/06 10:31:00;;;;;;;;;;;;;;;;;;5479166;25;19932;-66
2024/05/06 10:33:25;;;;;;;;;;;;;;;;;;5479233;25;20714;-66
2024/05/06 10:35:50;;;;;;;;;;;;;;;;;;5482180;25;19939;-67
2024/05/06 10:38:16;;;;;;;;;;;;;;;;;;5478395;26;19928;-67
2024/05/06 10:40:41;;;;;;;;;;;;;;;;;;5479180;25;19927;-66
2024/05/06 10:43:06;;;;;;;;;;;;;;;;;;5479637;25;19939;-67
2024/05/06 10:45:34;;;;;;;;;;;;;;;;;;5478902;25;19931;-66
2024/05/06 10:47:59;;;;;;;;;;;;;;;;;;5478590;25;20471;-67
2024/05/06 10:50:24;;;;;;;;;;;;;;;;;;5478603;25;20429;-66
2024/05/06 10:52:49;;;;;;;;;;;;;;;;;;5479581;25;19928;-66
2024/05/06 10:55:14;;;;;;;;;;;;;;;;;;5481686;25;19928;-66
2024/05/06 10:57:39;;;;;;;;;;;;;;;;;;5457030;25;19933;-67
2024/05/06 11:00:04;;;;;;;;;;;;;;;;;;5476242;26;20273;-67
2024/05/06 11:02:29;;;;;;;;;;;;;;;;;;5480608;26;19928;-66
2024/05/06 11:04:54;;;;;;;;;;;;;;;;;;5482280;25;19940;-66
2024/05/06 11:07:19;;;;;;;;;;;;;;;;;;5482377;25;19939;-66
2024/05/06 11:09:45;;;;;;;;;;;;;;;;;;5482752;26;19927;-67
2024/05/06 11:12:10;;;;;;;;;;;;;;;;;;5482274;25;19928;-67
2024/05/06 11:14:35;;;;;;;;;;;;;;;;;;5481874;25;19940;-66
2024/05/06 11:17:00;;;;;;;;;;;;;;;;;;5482485;25;19928;-66
2024/05/06 11:19:25;;;;;;;;;;;;;;;;;;5482200;26;19996;-66
2024/05/06 11:21:50;;;;;;;;;;;;;;;;;;5491108;25;19928;-66
2024/05/06 11:24:15;;;;;;;;;;;;;;;;;;5481483;25;19936;-66
2024/05/06 11:26:40;;;;;;;;;;;;;;;;;;5482255;25;20280;-66
2024/05/06 11:29:05;;;;;;;;;;;;;;;;;;5466245;25;19965;-66
2024/05/06 11:31:31;;;;;;;;;;;;;;;;;;5467235;26;19934;-66
2024/05/06 11:33:56;;;;;;;;;;;;;;;;;;5481846;25;19947;-66
2024/05/06 11:36:21;;;;;;;;;;;;;;;;;;5480502;25;20397;-66
2024/05/06 11:38:46;;;;;;;;;;;;;;;;;;5445226;26;19928;-67
2024/05/06 11:41:12;;;;;;;;;;;;;;;;;;5463449;26;19928;-66
2024/05/06 11:43:37;;;;;;;;;;;;;;;;;;5481618;26;19932;-66
2024/05/06 11:46:02;;;;;;;;;;;;;;;;;;5482180;25;19943;-67
2024/05/06 11:48:27;;;;;;;;;;;;;;;;;;5480786;25;19928;-67
2024/05/06 11:50:52;;;;;;;;;;;;;;;;;;5481557;25;20385;-67
2024/05/06 11:53:18;;;;;;;;;;;;;;;;;;5496927;25;19932;-67
2024/05/06 11:55:43;;;;;;;;;;;;;;;;;;5481896;25;20373;-66
2024/05/06 11:58:08;;;;;;;;;;;;;;;;;;5481504;25;19935;-67
2024/05/06 12:00:33;;;;;;;;;;;;;;;;;;5481159;25;19928;-67
2024/05/06 12:02:58;;;;;;;;;;;;;;;;;;5481805;25;19953;-67
2024/05/06 12:05:23;;;;;;;;;;;;;;;;;;5481426;25;19928;-69
2024/05/06 12:07:48;;;;;;;;;;;;;;;;;;5481110;25;19934;-69
2024/05/06 12:10:13;;;;;;;;;;;;;;;;;;5480780;25;19940;-69
2024/05/06 12:12:38;;;;;;;;;;;;;;;;;;5472103;25;19961;-69
2024/05/06 12:15:03;;;;;;;;;;;;;;;;;;5459836;26;19928;-69
2024/05/06 12:17:28;;;;;;;;;;;;;;;;;;5481395;26;20280;-69
2024/05/06 12:19:54;;;;;;;;;;;;;;;;;;5482609;26;19928;-66
2024/05/06 12:22:19;;;;;;;;;;;;;;;;;;5489948;25;19939;-69
2024/05/06 12:24:44;;;;;;;;;;;;;;;;;;5480999;25;20366;-69
2024/05/06 12:27:09;;;;;;;;;;;;;;;;;;5481217;25;20314;-69
2024/05/06 12:29:34;;;;;;;;;;;;;;;;;;5480904;26;19928;-69
2024/05/06 12:31:59;;;;;;;;;;;;;;;;;;5482068;25;19987;-69
2024/05/06 12:34:24;;;;;;;;;;;;;;;;;;5442582;26;19928;-69
2024/05/06 12:36:49;;;;;;;;;;;;;;;;;;5461447;26;19983;-69
2024/05/06 12:39:14;;;;;;;;;;;;;;;;;;5464332;26;19928;-66
2024/05/06 12:41:39;;;;;;;;;;;;;;;;;;5469696;26;20252;-66
2024/05/06 12:44:05;;;;;;;;;;;;;;;;;;5480544;25;20401;-66
2024/05/06 12:46:30;;;;;;;;;;;;;;;;;;5480644;25;20272;-66
2024/05/06 12:48:55;;;;;;;;;;;;;;;;;;5467438;25;20385;-66
2024/05/06 12:51:20;;;;;;;;;;;;;;;;;;5463798;26;20375;-66
2024/05/06 12:53:45;;;;;;;;;;;;;;;;;;5480160;25;19939;-66
2024/05/06 12:56:10;;;;;;;;;;;;;;;;;;5478857;25;19935;-69
2024/05/06 12:58:35;;;;;;;;;;;;;;;;;;5480747;26;20233;-69
2024/05/06 13:01:00;;;;;;;;;;;;;;;;;;5481063;25;19939;-69
2024/05/06 13:03:25;;;;;;;;;;;;;;;;;;5480207;25;19928;-69
2024/05/06 13:05:51;;;;;;;;;;;;;;;;;;5480512;25;19928;-66
2024/05/06 13:08:16;;;;;;;;;;;;;;;;;;5451118;25;19935;-66
2024/05/06 13:10:41;;;;;;;;;;;;;;;;;;5480415;26;20246;-66
2024/05/06 13:13:06;;;;;;;;;;;;;;;;;;5480926;25;20460;-66
2024/05/06 13:15:31;;;;;;;;;;;;;;;;;;5480142;25;19974;-66
2024/05/06 13:17:56;;;;;;;;;;;;;;;;;;5477876;26;19928;-66
2024/05/06 13:20:22;;;;;;;;;;;;;;;;;;5488024;25;19946;-66
2024/05/06 13:22:47;;;;;;;;;;;;;;;;;;5482107;25;19928;-66
2024/05/06 13:25:12;;;;;;;;;;;;;;;;;;5480656;25;19928;-66
2024/05/06 13:27:37;;;;;;;;;;;;;;;;;;5480186;25;20151;-66
2024/05/06 13:30:02;;;;;;;;;;;;;;;;;;5480527;26;19928;-66
2024/05/06 13:32:27;;;;;;;;;;;;;;;;;;5480435;25;20206;-66
2024/05/06 13:34:52;;;;;;;;;;;;;;;;;;5479635;25;19955;-69
2024/05/06 13:37:17;;;;;;;;;;;;;;;;;;5485924;25;19928;-69
2024/05/06 13:39:42;;;;;;;;;;;;;;;;;;5480037;26;19961;-69
2024/05/06 13:42:08;;;;;;;;;;;;;;;;;;5480300;25;20512;-68
2024/05/06 13:44:33;;;;;;;;;;;;;;;;;;5471986;25;19939;-69
2024/05/06 13:46:58;;;;;;;;;;;;;;;;;;5479741;25;20515;-69
2024/05/06 13:49:23;;;;;;;;;;;;;;;;;;5480338;26;19928;-68
2024/05/06 13:51:50;;;;;;;;;;;;;;;;;;5479031;25;19978;-68
2024/05/06 13:54:15;;;;;;;;;;;;;;;;;;5479863;25;20004;-69
2024/05/06 13:56:40;;;;;;;;;;;;;;;;;;5479262;25;20387;-68
2024/05/06 13:59:05;;;;;;;;;;;;;;;;;;5478201;26;19935;-68
2024/05/06 14:01:30;;;;;;;;;;;;;;;;;;5478750;25;19932;-66
2024/05/06 14:03:55;;;;;;;;;;;;;;;;;;5458092;25;20382;-66
2024/05/06 14:06:20;;;;;;;;;;;;;;;;;;5477824;25;20438;-66
2024/05/06 14:08:46;;;;;;;;;;;;;;;;;;5479379;26;20444;-66
2024/05/06 14:11:11;;;;;;;;;;;;;;;;;;5479307;25;19928;-66
2024/05/06 14:13:37;;;;;;;;;;;;;;;;;;5463362;25;19928;-66
2024/05/06 14:16:02;;;;;;;;;;;;;;;;;;5472201;25;20296;-66
2024/05/06 14:18:27;;;;;;;;;;;;;;;;;;5479320;26;20305;-69
2024/05/06 14:20:52;;;;;;;;;;;;;;;;;;5490259;25;19939;-66
2024/05/06 14:23:17;;;;;;;;;;;;;;;;;;5479017;25;20273;-69
2024/05/06 14:25:43;;;;;;;;;;;;;;;;;;5479806;25;20388;-68
2024/05/06 14:28:08;;;;;;;;;;;;;;;;;;5478161;25;19939;-69
2024/05/06 14:30:33;;;;;;;;;;;;;;;;;;5478678;26;19928;-66
2024/05/06 14:32:58;;;;;;;;;;;;;;;;;;5479287;25;19972;-66
2024/05/06 14:35:23;;;;;;;;;;;;;;;;;;5483640;25;19935;-66
2024/05/06 14:37:48;;;;;;;;;;;;;;;;;;5481612;25;19931;-66
2024/05/06 14:40:13;;;;;;;;;;;;;;;;;;5479500;25;20353;-68
2024/05/06 14:42:38;;;;;;;;;;;;;;;;;;5464025;25;19996;-66
2024/05/06 14:45:03;;;;;;;;;;;;;;;;;;5464307;25;20000;-66
2024/05/06 14:47:28;;;;;;;;;;;;;;;;;;5464445;26;19932;-66
2024/05/06 14:49:53;;;;;;;;;;;;;;;;;;5474489;26;19928;-66
2024/05/06 14:52:24;;;;;;;;;;;;;;;;;;5452878;26;19928;-66
2024/05/06 14:54:49;;;;;;;;;;;;;;;;;;5442442;26;19933;-66
2024/05/06 14:57:16;;;;;;;;;;;;;;;;;;5458675;25;19939;-66
2024/05/06 14:59:41;;;;;;;;;;;;;;;;;;5469720;26;19928;-66
2024/05/06 15:02:06;;;;;;;;;;;;;;;;;;5478767;25;19939;-67
2024/05/06 15:04:31;;;;;;;;;;;;;;;;;;5478847;25;19935;-66
2024/05/06 15:06:56;;;;;;;;;;;;;;;;;;5477953;25;19936;-66
2024/05/06 15:09:21;;;;;;;;;;;;;;;;;;5478864;26;19947;-66
2024/05/06 15:11:46;;;;;;;;;;;;;;;;;;5463382;25;19953;-66
2024/05/06 15:14:12;;;;;;;;;;;;;;;;;;5476077;25;20272;-67
2024/05/06 15:16:37;;;;;;;;;;;;;;;;;;5458512;25;20366;-66
2024/05/06 15:19:02;;;;;;;;;;;;;;;;;;5462851;26;19966;-66
2024/05/06 15:21:27;;;;;;;;;;;;;;;;;;5477140;26;19935;-66
2024/05/06 15:23:52;;;;;;;;;;;;;;;;;;5477874;26;20448;-66
2024/05/06 15:26:20;;;;;;;;;;;;;;;;;;5463176;25;19928;-66
2024/05/06 15:28:45;;;;;;;;;;;;;;;;;;5475002;25;20562;-66
2024/05/06 15:31:10;;;;;;;;;;;;;;;;;;5455664;26;20241;-66
2024/05/06 15:33:35;;;;;;;;;;;;;;;;;;5475074;25;19928;-66
2024/05/06 15:36:00;;;;;;;;;;;;;;;;;;5481226;25;20424;-66
2024/05/06 15:38:25;;;;;;;;;;;;;;;;;;5459012;26;19928;-66
2024/05/06 15:40:51;;;;;;;;;;;;;;;;;;5478222;25;19964;-67
2024/05/06 15:43:17;;;;;;;;;;;;;;;;;;5470062;25;19928;-67
2024/05/06 15:45:42;;;;;;;;;;;;;;;;;;5446144;26;19935;-67
2024/05/06 15:48:07;;;;;;;;;;;;;;;;;;5481159;25;19928;-67
2024/05/06 15:50:32;;;;;;;;;;;;;;;;;;5482381;25;19935;-67
2024/05/06 15:52:57;;;;;;;;;;;;;;;;;;5478743;25;20292;-67
2024/05/06 15:55:22;;;;;;;;;;;;;;;;;;5471600;25;20000;-67
2024/05/06 15:57:47;;;;;;;;;;;;;;;;;;5451352;26;20254;-67
2024/05/06 16:00:13;;;;;;;;;;;;;;;;;;5479339;25;19928;-67
2024/05/06 16:02:38;;;;;;;;;;;;;;;;;;5459874;25;19976;-67
2024/05/06 16:05:03;;;;;;;;;;;;;;;;;;5470491;25;20003;-67
2024/05/06 16:07:28;;;;;;;;;;;;;;;;;;5453527;25;20315;-67
2024/05/06 16:09:53;;;;;;;;;;;;;;;;;;5451972;26;19928;-67
2024/05/06 16:12:18;;;;;;;;;;;;;;;;;;5458072;25;20376;-67
2024/05/06 16:14:43;;;;;;;;;;;;;;;;;;5458938;25;19945;-67
2024/05/06 16:17:08;;;;;;;;;;;;;;;;;;5455912;26;19932;-68
2024/05/06 16:19:36;;;;;;;;;;;;;;;;;;5481509;26;19928;-67
2024/05/06 16:22:01;;;;;;;;;;;;;;;;;;5480213;25;19928;-67
2024/05/06 16:24:26;;;;;;;;;;;;;;;;;;5470281;25;19929;-67
2024/05/06 16:26:51;;;;;;;;;;;;;;;;;;5470612;25;20247;-67
2024/05/06 16:29:16;;;;;;;;;;;;;;;;;;5466292;25;20376;-67
2024/05/06 16:31:41;;;;;;;;;;;;;;;;;;5462229;26;19978;-67
2024/05/06 16:34:06;;;;;;;;;;;;;;;;;;5477573;25;19928;-68